Time;durP1;ratioP1;P1;durP2;ratioP2;P2;SDS_P1;SDS_P2;PMS_P1;PMS_P2;Temp;Humidity;BMP_temperature;BMP_pressure;BME280_temperature;BME280_humidity;BME280_pressure;Samples;Min_cycle;Max_cycle;Signal;HPM_P1;HPM_P2
2022/08/29 00:01:00;;;;;;;6.53;3.42;;;;;;;14.73;78.57;102139.19;5045969;28;20086;-72
2022/08/29 00:03:27;;;;;;;5.28;3.58;;;;;;;14.67;78.84;102139.31;5046218;28;20025;-72
2022/08/29 00:05:52;;;;;;;6.53;3.60;;;;;;;14.66;78.86;102143.69;5053168;28;20032;-72
2022/08/29 00:08:18;;;;;;;6.90;3.60;;;;;;;14.67;79.19;102149.78;5047185;28;20033;-72
2022/08/29 00:10:44;;;;;;;9.93;4.28;;;;;;;14.65;79.20;102148.94;5049532;28;20025;-72
2022/08/29 00:13:11;;;;;;;6.38;3.78;;;;;;;14.56;79.46;102147.38;5046117;28;20527;-72
2022/08/29 00:15:37;;;;;;;8.93;4.40;;;;;;;14.55;79.58;102150.91;5044774;28;20171;-72
2022/08/29 00:18:03;;;;;;;9.50;3.80;;;;;;;14.51;80.21;102143.97;5044232;28;20017;-73
2022/08/29 00:20:31;;;;;;;8.18;4.38;;;;;;;14.46;80.28;102141.41;5052550;28;20037;-72
2022/08/29 00:22:57;;;;;;;7.93;4.50;;;;;;;14.39;80.50;102128.47;5052246;28;20488;-72
2022/08/29 00:25:23;;;;;;;12.90;5.68;;;;;;;14.39;80.89;102134.56;5049261;28;20057;-72
2022/08/29 00:27:48;;;;;;;11.43;5.18;;;;;;;14.39;80.81;102137.19;5035057;28;20035;-72
2022/08/29 00:30:15;;;;;;;10.98;5.00;;;;;;;14.35;81.02;102135.50;5046104;28;20029;-72
2022/08/29 00:32:41;;;;;;;12.77;5.25;;;;;;;14.29;81.26;102138.25;5052307;28;20126;-72
2022/08/29 00:35:10;;;;;;;15.55;5.30;;;;;;;14.25;81.53;102133.94;5052247;28;20028;-73
2022/08/29 00:37:36;;;;;;;11.10;5.80;;;;;;;14.15;81.69;102135.00;5034826;28;20029;-72
2022/08/29 00:40:03;;;;;;;11.35;6.00;;;;;;;14.07;81.92;102142.16;5052317;28;20104;-72
2022/08/29 00:42:28;;;;;;;14.38;6.65;;;;;;;13.98;82.17;102133.53;5051953;28;20050;-72
2022/08/29 00:44:53;;;;;;;11.73;5.68;;;;;;;13.95;82.73;102148.44;5039923;28;20485;-72
2022/08/29 00:47:24;;;;;;;12.25;6.32;;;;;;;13.85;82.62;102141.63;5045542;28;20053;-72
2022/08/29 00:49:53;;;;;;;12.30;6.10;;;;;;;13.84;83.16;102145.16;5051920;28;20017;-72
2022/08/29 00:52:31;;;;;;;12.35;6.90;;;;;;;13.79;82.98;102142.59;5042948;28;20078;-72
2022/08/29 00:54:58;;;;;;;11.70;6.38;;;;;;;13.76;82.93;102146.13;5050324;28;20381;-72
2022/08/29 00:57:27;;;;;;;15.18;7.03;;;;;;;13.62;83.75;102140.25;5044193;28;20025;-72
2022/08/29 00:59:53;;;;;;;12.88;7.60;;;;;;;13.49;83.80;102136.06;5052069;28;20028;-72
2022/08/29 01:02:19;;;;;;;14.88;7.38;;;;;;;13.48;84.90;102148.31;5043064;28;20116;-72
2022/08/29 01:04:45;;;;;;;12.10;7.82;;;;;;;13.49;84.63;102146.56;5035858;28;20447;-72
2022/08/29 01:07:11;;;;;;;12.25;8.07;;;;;;;13.44;84.98;102151.88;5036471;28;20029;-72
2022/08/29 01:09:38;;;;;;;12.85;7.88;;;;;;;13.42;85.05;102150.16;5051848;28;20070;-72
2022/08/29 01:12:18;;;;;;;12.18;7.60;;;;;;;13.43;85.37;102154.50;5045532;28;20036;-72
2022/08/29 01:14:50;;;;;;;14.35;8.40;;;;;;;13.37;85.37;102154.59;5051875;28;20025;-72
2022/08/29 01:17:27;;;;;;;17.23;8.20;;;;;;;13.37;85.58;102154.59;5036461;28;20409;-72
2022/08/29 01:19:59;;;;;;;14.60;8.60;;;;;;;13.38;85.42;102161.56;5051547;28;20028;-72
2022/08/29 01:22:33;;;;;;;18.73;8.77;;;;;;;13.32;86.13;102154.66;5051303;28;20083;-72
2022/08/29 01:25:02;;;;;;;16.27;9.20;;;;;;;13.30;86.35;102157.28;5042764;28;20504;-72
2022/08/29 01:27:31;;;;;;;16.10;10.05;;;;;;;13.26;86.43;102158.22;5049660;28;20120;-72
2022/08/29 01:29:57;;;;;;;17.77;9.98;;;;;;;13.29;86.14;102152.09;5051742;28;20465;-72
2022/08/29 01:32:24;;;;;;;15.95;9.20;;;;;;;13.20;86.78;102153.03;5050576;28;20032;-72
2022/08/29 01:34:49;;;;;;;15.25;9.40;;;;;;;13.16;86.66;102155.72;5051569;28;20389;-72
2022/08/29 01:37:16;;;;;;;17.95;9.73;;;;;;;13.14;87.31;102147.88;5045573;28;20024;-72
2022/08/29 01:39:43;;;;;;;16.25;9.50;;;;;;;13.09;87.29;102139.22;5037202;28;20036;-72
2022/08/29 01:42:13;;;;;;;15.55;9.23;;;;;;;13.08;87.27;102133.13;5033112;28;20499;-72
2022/08/29 01:44:39;;;;;;;15.82;9.98;;;;;;;13.01;87.46;102133.22;5051235;28;20029;-72
2022/08/29 01:47:06;;;;;;;19.00;10.32;;;;;;;12.94;87.98;102135.03;5044543;28;20078;-72
2022/08/29 01:49:34;;;;;;;17.45;9.55;;;;;;;12.91;88.25;102139.47;5053767;28;20422;-72
2022/08/29 01:52:00;;;;;;;18.50;10.32;;;;;;;12.94;88.38;102136.81;5044531;28;20037;-72
2022/08/29 01:54:26;;;;;;;19.83;10.27;;;;;;;12.92;88.63;102138.59;5050927;28;20025;-72
2022/08/29 01:56:52;;;;;;;16.05;9.80;;;;;;;12.87;88.52;102147.34;5050783;28;20043;-72
2022/08/29 01:59:21;;;;;;;16.02;9.35;;;;;;;12.87;88.62;102144.72;5055038;28;20021;-72
2022/08/29 02:01:50;;;;;;;16.83;10.07;;;;;;;12.84;89.00;102141.28;5052960;28;20108;-72
2022/08/29 02:04:16;;;;;;;15.98;9.27;;;;;;;12.83;89.15;102144.78;5054736;28;20120;-72
2022/08/29 02:06:42;;;;;;;14.63;10.13;;;;;;;12.83;88.91;102158.75;5045455;28;20107;-72
2022/08/29 02:09:07;;;;;;;16.23;9.45;;;;;;;12.79;89.12;102154.44;5049595;28;20040;-72
2022/08/29 02:11:35;;;;;;;25.60;10.70;;;;;;;12.75;89.57;102152.75;5052651;28;20025;-72
2022/08/29 02:14:03;;;;;;;21.33;11.25;;;;;;;12.75;89.28;102144.00;5042798;28;20111;-72
2022/08/29 02:16:30;;;;;;;18.83;10.63;;;;;;;12.69;90.06;102144.06;5044985;28;20041;-72
2022/08/29 02:18:55;;;;;;;19.00;11.48;;;;;;;12.67;90.19;102148.47;5037032;28;20022;-72
2022/08/29 02:21:23;;;;;;;19.50;12.10;;;;;;;12.63;90.67;102150.25;5046786;28;20366;-72
2022/08/29 02:23:50;;;;;;;18.15;10.80;;;;;;;12.64;90.33;102152.00;5039755;28;20024;-72
2022/08/29 02:26:18;;;;;;;18.27;11.13;;;;;;;12.67;90.26;102157.19;5046201;28;20404;-72
2022/08/29 02:28:44;;;;;;;19.20;12.10;;;;;;;12.69;90.25;102159.78;5052329;28;20100;-72
2022/08/29 02:31:09;;;;;;;21.77;12.65;;;;;;;12.70;90.67;102161.53;5054640;28;20032;-72
2022/08/29 02:33:36;;;;;;;21.75;13.75;;;;;;;12.67;90.63;102170.28;5037141;28;20151;-72
2022/08/29 02:36:01;;;;;;;20.83;13.32;;;;;;;12.63;90.44;102160.72;5033400;28;20093;-72
2022/08/29 02:38:27;;;;;;;20.88;14.27;;;;;;;12.68;90.81;102165.91;5048232;28;20025;-72
2022/08/29 02:40:53;;;;;;;22.83;13.98;;;;;;;12.66;91.00;102171.16;5054844;28;20086;-72
2022/08/29 02:43:19;;;;;;;21.63;13.48;;;;;;;12.67;90.70;102167.66;5051001;28;20507;-72
2022/08/29 02:45:45;;;;;;;22.60;14.80;;;;;;;12.69;90.86;102165.91;5040325;28;20024;-72
2022/08/29 02:48:11;;;;;;;24.15;14.75;;;;;;;12.69;91.34;102173.75;5054244;28;20045;-72
2022/08/29 02:50:44;;;;;;;20.85;13.45;;;;;;;12.69;91.00;102162.38;5053716;28;20134;-72
2022/08/29 02:53:10;;;;;;;23.38;14.73;;;;;;;12.67;91.12;102172.88;5043286;28;20040;-72
2022/08/29 02:55:36;;;;;;;24.52;15.80;;;;;;;12.68;91.26;102178.97;5046178;28;20033;-72
2022/08/29 02:58:02;;;;;;;26.10;14.80;;;;;;;12.69;91.61;102165.00;5053786;28;20015;-72
2022/08/29 03:00:27;;;;;;;22.98;14.80;;;;;;;12.68;91.37;102174.59;5052885;28;20051;-72
2022/08/29 03:02:54;;;;;;;25.58;15.25;;;;;;;12.59;91.94;102170.38;5044447;28;20028;-72
2022/08/29 03:05:33;;;;;;;27.60;15.30;;;;;;;12.55;91.90;102162.53;5052088;28;20128;-72
2022/08/29 03:08:00;;;;;;;25.25;15.43;;;;;;;12.56;91.85;102169.53;5035254;28;20068;-72
2022/08/29 03:10:26;;;;;;;26.58;14.65;;;;;;;12.54;92.09;102168.66;5053638;28;20032;-72
2022/08/29 03:12:51;;;;;;;29.65;16.08;;;;;;;12.49;92.19;102160.00;5045201;28;20381;-72
2022/08/29 03:15:17;;;;;;;25.50;15.15;;;;;;;12.51;91.90;102166.09;5051748;28;20390;-72
2022/08/29 03:17:43;;;;;;;30.40;15.10;;;;;;;12.50;92.70;102164.34;5045181;28;20040;-72
2022/08/29 03:20:10;;;;;;;24.17;15.05;;;;;;;12.40;93.04;102167.06;5053725;28;20025;-72
2022/08/29 03:22:37;;;;;;;20.77;13.52;;;;;;;12.37;93.42;102167.09;5046815;28;20040;-72
2022/08/29 03:25:03;;;;;;;20.73;12.48;;;;;;;12.35;93.21;102155.75;5047964;28;20082;-72
2022/08/29 03:27:30;;;;;;;18.77;11.80;;;;;;;12.31;93.60;102161.06;5042631;28;20033;-72
2022/08/29 03:29:55;;;;;;;17.83;11.85;;;;;;;12.33;93.54;102152.31;5051333;28;20025;-72
2022/08/29 03:32:21;;;;;;;19.13;12.10;;;;;;;12.30;93.18;102151.50;5048620;28;21714;-72
2022/08/29 03:34:46;;;;;;;19.55;11.80;;;;;;;12.28;93.30;102148.00;5045248;28;20404;-72
2022/08/29 03:37:12;;;;;;;19.35;11.65;;;;;;;12.27;93.38;102152.38;5041674;28;20048;-72
2022/08/29 03:39:37;;;;;;;20.15;12.10;;;;;;;12.24;93.78;102139.34;5052880;28;20420;-72
2022/08/29 03:42:04;;;;;;;18.95;13.00;;;;;;;12.23;93.81;102139.31;5051937;28;20037;-72
2022/08/29 03:44:35;;;;;;;19.90;12.23;;;;;;;12.19;93.72;102138.50;5039416;28;20033;-72
2022/08/29 03:47:00;;;;;;;24.38;12.55;;;;;;;12.21;93.71;102128.91;5026762;28;20509;-72
2022/08/29 03:49:26;;;;;;;20.35;13.30;;;;;;;12.22;93.28;102128.00;5053169;28;20056;-72
2022/08/29 03:51:51;;;;;;;21.58;14.30;;;;;;;12.17;93.73;102114.13;5053607;28;20067;-72
2022/08/29 03:54:16;;;;;;;23.80;13.60;;;;;;;12.16;93.86;102122.84;5052346;28;20100;-72
2022/08/29 03:56:42;;;;;;;22.67;14.05;;;;;;;12.16;94.18;102118.50;5042749;28;20534;-72
2022/08/29 03:59:07;;;;;;;27.33;14.25;;;;;;;12.22;94.36;102116.69;5046709;28;20025;-72
2022/08/29 04:01:33;;;;;;;22.35;14.70;;;;;;;12.20;94.78;102124.56;5050254;28;20053;-72
2022/08/29 04:03:59;;;;;;;23.83;14.90;;;;;;;12.25;94.42;102114.91;5053231;28;20063;-72
2022/08/29 04:06:26;;;;;;;23.48;14.50;;;;;;;12.26;94.94;102124.50;5041586;28;20065;-72
2022/08/29 04:08:52;;;;;;;24.35;14.63;;;;;;;12.27;94.54;102121.00;5053615;28;20029;-72
2022/08/29 04:11:19;;;;;;;27.48;15.52;;;;;;;12.24;94.70;102114.94;5052194;28;20031;-72
2022/08/29 04:13:45;;;;;;;27.95;16.27;;;;;;;12.23;95.01;102128.88;5039831;28;20389;-72
2022/08/29 04:16:12;;;;;;;27.55;15.57;;;;;;;12.23;94.97;102127.16;5036607;28;20044;-72
2022/08/29 04:18:38;;;;;;;25.50;15.80;;;;;;;12.22;94.67;102132.38;5051237;28;20032;-72
2022/08/29 04:21:04;;;;;;;29.30;16.63;;;;;;;12.21;94.88;102136.75;5052146;28;20409;-72
2022/08/29 04:23:30;;;;;;;29.20;17.85;;;;;;;12.13;94.64;102135.94;5052410;28;20535;-72
2022/08/29 04:25:55;;;;;;;25.95;15.68;;;;;;;12.13;95.03;102134.22;5040062;28;20108;-72
2022/08/29 04:28:22;;;;;;;27.77;16.80;;;;;;;12.10;94.82;102138.59;5051530;28;20029;-72
2022/08/29 04:30:50;;;;;;;28.83;17.27;;;;;;;12.08;95.41;102137.75;5052852;28;20095;-72
2022/08/29 04:33:15;;;;;;;30.60;16.60;;;;;;;12.05;95.59;102143.84;5052218;28;20062;-72
2022/08/29 04:35:41;;;;;;;29.42;16.50;;;;;;;12.09;95.69;102152.53;5047828;28;20058;-72
2022/08/29 04:38:07;;;;;;;29.60;16.10;;;;;;;12.09;95.48;102142.06;5052188;28;20032;-72
2022/08/29 04:40:33;;;;;;;28.95;15.82;;;;;;;12.15;95.74;102142.88;5049682;28;20028;-72
2022/08/29 04:42:58;;;;;;;26.58;14.77;;;;;;;12.12;95.36;102136.81;5051983;28;20033;-72
2022/08/29 04:45:24;;;;;;;35.08;16.42;;;;;;;12.12;95.62;102137.69;5046231;28;20029;-72
2022/08/29 04:47:50;;;;;;;26.70;16.80;;;;;;;12.09;95.29;102139.47;5052566;28;20096;-72
2022/08/29 04:50:19;;;;;;;25.08;15.40;;;;;;;12.16;95.89;102144.63;5047152;28;20025;-72
2022/08/29 04:52:45;;;;;;;28.02;16.08;;;;;;;12.14;95.84;102150.75;5036281;28;20499;-72
2022/08/29 04:55:12;;;;;;;23.98;14.25;;;;;;;12.09;95.69;102153.41;5033675;28;20021;-72
2022/08/29 04:57:38;;;;;;;23.35;14.38;;;;;;;12.05;96.05;102151.69;5034080;28;20078;-72
2022/08/29 05:00:06;;;;;;;22.23;13.98;;;;;;;12.10;95.96;102165.59;5040963;28;20021;-72
2022/08/29 05:02:32;;;;;;;25.65;14.00;;;;;;;12.12;96.21;102152.50;5051831;28;20460;-72
2022/08/29 05:04:57;;;;;;;24.15;14.18;;;;;;;12.10;95.64;102142.09;5047038;28;20029;-72
2022/08/29 05:07:25;;;;;;;26.40;13.43;;;;;;;12.14;95.49;102150.75;5030651;28;20047;-72
2022/08/29 05:09:57;;;;;;;22.38;13.13;;;;;;;12.15;95.63;102148.13;5047604;28;20021;-72
2022/08/29 05:12:24;;;;;;;21.98;13.77;;;;;;;12.08;95.70;102129.91;5051096;28;20132;-72
2022/08/29 05:14:50;;;;;;;21.73;13.30;;;;;;;12.13;95.57;102138.53;5049091;28;20380;-72
2022/08/29 05:17:15;;;;;;;22.75;12.27;;;;;;;12.07;95.54;102143.84;5037354;28;20029;-72
2022/08/29 05:19:42;;;;;;;20.55;12.52;;;;;;;12.20;95.90;102150.72;5051729;28;20054;-72
2022/08/29 05:22:12;;;;;;;23.20;12.70;;;;;;;12.28;95.77;102159.31;5051524;28;20108;-72
2022/08/29 05:24:37;;;;;;;22.38;11.52;;;;;;;12.37;95.66;102163.63;5050578;28;20104;-72
2022/08/29 05:27:10;;;;;;;21.27;12.02;;;;;;;12.41;95.47;102166.16;5043828;28;20109;-72
2022/08/29 05:29:41;;;;;;;18.33;11.30;;;;;;;12.48;94.86;102171.34;5042331;28;20536;-72
2022/08/29 05:32:07;;;;;;;20.23;10.90;;;;;;;12.53;95.04;102174.78;5050825;28;20021;-72
2022/08/29 05:34:34;;;;;;;17.85;10.82;;;;;;;12.57;94.87;102174.72;5051232;28;20465;-72
2022/08/29 05:37:01;;;;;;;15.10;10.80;;;;;;;12.64;94.87;102184.25;5039335;28;20457;-72
2022/08/29 05:39:26;;;;;;;14.80;10.20;;;;;;;12.66;94.58;102184.25;5044404;28;20392;-72
2022/08/29 05:41:55;;;;;;;22.08;10.43;;;;;;;12.75;94.67;102184.16;5051668;28;20029;-72
2022/08/29 05:44:21;;;;;;;18.23;10.02;;;;;;;12.73;94.68;102179.81;5049872;28;20033;-72
2022/08/29 05:46:47;;;;;;;15.38;9.10;;;;;;;12.77;94.51;102189.34;5039821;28;20086;-72
2022/08/29 05:49:13;;;;;;;15.82;9.68;;;;;;;12.82;94.72;102192.78;5049142;28;20071;-72
2022/08/29 05:51:39;;;;;;;12.50;9.32;;;;;;;12.91;94.45;102184.81;5051267;28;20029;-72
2022/08/29 05:54:05;;;;;;;13.63;8.60;;;;;;;13.01;93.73;102190.81;5050443;28;20424;-72
2022/08/29 05:56:31;;;;;;;15.27;8.85;;;;;;;13.09;93.84;102188.97;5039234;28;20028;-72
2022/08/29 05:58:56;;;;;;;15.23;8.70;;;;;;;13.17;93.57;102181.88;5041573;28;20025;-72
2022/08/29 06:01:28;;;;;;;15.07;8.20;;;;;;;13.19;92.94;102177.50;5039881;28;20025;-72
2022/08/29 06:03:55;;;;;;;15.18;7.93;;;;;;;13.35;93.44;102189.53;5033413;28;20108;-72
2022/08/29 06:06:22;;;;;;;12.15;7.88;;;;;;;13.41;92.58;102192.97;5032181;28;20835;-72
2022/08/29 06:08:48;;;;;;;13.48;7.82;;;;;;;13.48;91.95;102194.63;5051667;28;20346;-72
2022/08/29 06:11:15;;;;;;;12.05;6.97;;;;;;;13.53;90.73;102200.63;5041719;28;20036;-72
2022/08/29 06:13:41;;;;;;;17.27;7.80;;;;;;;13.55;90.75;102196.25;5050453;28;20053;-72
2022/08/29 06:16:10;;;;;;;11.57;7.10;;;;;;;13.57;90.20;102197.97;5036037;28;20122;-72
2022/08/29 06:18:35;;;;;;;9.82;6.78;;;;;;;13.57;90.59;102186.63;5049050;28;20124;-72
2022/08/29 06:21:03;;;;;;;12.52;7.03;;;;;;;13.64;89.51;102196.13;5050291;28;20114;-72
2022/08/29 06:23:29;;;;;;;12.82;7.28;;;;;;;13.62;89.74;102203.13;5050838;28;20032;-72
2022/08/29 06:25:58;;;;;;;12.45;6.70;;;;;;;13.68;88.54;102212.66;5043139;28;20029;-72
2022/08/29 06:28:26;;;;;;;10.70;7.07;;;;;;;13.69;88.24;102202.16;5034936;28;20025;-72
2022/08/29 06:30:51;;;;;;;11.90;7.00;;;;;;;13.71;87.22;102197.75;5050983;28;20025;-72
2022/08/29 06:33:16;;;;;;;14.10;8.15;;;;;;;13.85;87.18;102189.69;5037816;28;20029;-72
2022/08/29 06:35:42;;;;;;;14.20;6.90;;;;;;;13.93;87.32;102194.78;5036528;28;20032;-73
2022/08/29 06:38:07;;;;;;;12.35;6.45;;;;;;;14.07;86.36;102198.06;5054615;28;20389;-74
2022/08/29 06:40:32;;;;;;;14.15;7.35;;;;;;;14.21;85.11;102206.56;5054341;28;20033;-76
2022/08/29 06:42:57;;;;;;;11.45;6.82;;;;;;;14.35;84.67;102215.97;5045640;28;20021;-75
2022/08/29 06:45:23;;;;;;;8.95;6.28;;;;;;;14.39;81.55;102212.41;5036287;28;20029;-75
2022/08/29 06:47:48;;;;;;;10.82;6.90;;;;;;;14.47;82.67;102207.88;5041065;28;20041;-75
2022/08/29 06:50:15;;;;;;;9.57;6.45;;;;;;;14.50;82.70;102220.94;5053895;28;20485;-75
2022/08/29 06:52:40;;;;;;;11.63;7.07;;;;;;;14.58;81.79;102216.44;5048313;28;20036;-75
2022/08/29 06:55:10;;;;;;;12.70;6.32;;;;;;;14.70;81.28;102220.63;5049674;28;20116;-75
2022/08/29 06:57:36;;;;;;;20.13;7.75;;;;;;;14.79;79.00;102216.97;5043759;28;20040;-75
2022/08/29 07:00:06;;;;;;;14.35;6.93;;;;;;;14.89;79.74;102208.88;5037563;28;20017;-75
2022/08/29 07:02:31;;;;;;;24.80;7.13;;;;;;;15.09;77.93;102212.84;5045358;28;20477;-75
2022/08/29 07:04:56;;;;;;;12.05;6.95;;;;;;;15.22;77.90;102206.44;5048274;28;20105;-76
2022/08/29 07:07:22;;;;;;;14.15;6.97;;;;;;;15.45;77.86;102208.56;5045530;28;20034;-75
2022/08/29 07:09:47;;;;;;;11.82;6.40;;;;;;;15.71;75.60;102213.28;5046075;28;20144;-75
2022/08/29 07:12:12;;;;;;;11.95;6.53;;;;;;;16.01;74.03;102203.78;5035221;28;20496;-76
2022/08/29 07:14:37;;;;;;;9.75;6.10;;;;;;;16.30;72.23;102199.56;5049540;28;20074;-75
2022/08/29 07:17:03;;;;;;;14.18;7.00;;;;;;;16.51;71.25;102195.50;5043486;28;20041;-75
2022/08/29 07:19:29;;;;;;;13.85;7.18;;;;;;;16.71;71.43;102203.75;5044991;28;20123;-76
2022/08/29 07:21:57;;;;;;;14.48;6.57;;;;;;;16.98;69.17;102211.81;5054246;28;20036;-75
2022/08/29 07:24:22;;;;;;;14.65;7.13;;;;;;;17.12;68.99;102208.78;5047529;28;20366;-76
2022/08/29 07:26:47;;;;;;;13.63;6.82;;;;;;;17.32;68.52;102203.78;5039053;28;20029;-76
2022/08/29 07:29:16;;;;;;;12.20;6.00;;;;;;;17.51;68.39;102198.81;5037960;28;20116;-76
2022/08/29 07:31:42;;;;;;;11.50;5.78;;;;;;;17.74;66.89;102198.09;5047327;28;20369;-75
2022/08/29 07:34:08;;;;;;;8.15;4.53;;;;;;;17.86;63.62;102188.97;5038101;28;20036;-76
2022/08/29 07:36:35;;;;;;;12.70;5.07;;;;;;;17.83;61.91;102192.56;5040730;28;20030;-76
2022/08/29 07:39:03;;;;;;;13.20;4.70;;;;;;;17.80;61.86;102190.00;5050660;28;20498;-76
2022/08/29 07:41:29;;;;;;;6.28;3.55;;;;;;;17.78;61.20;102178.63;5046528;28;20044;-76
2022/08/29 07:43:54;;;;;;;8.77;3.83;;;;;;;17.84;59.92;102170.53;5053609;28;20021;-76
2022/08/29 07:46:20;;;;;;;8.65;3.97;;;;;;;17.94;60.03;102184.28;5034580;28;20029;-76
2022/08/29 07:48:46;;;;;;;10.50;3.65;;;;;;;18.09;59.37;102190.84;5053521;28;20029;-76
2022/08/29 07:51:16;;;;;;;9.32;3.60;;;;;;;18.13;59.03;102190.66;5053472;28;20068;-76
2022/08/29 07:53:42;;;;;;;6.43;3.20;;;;;;;18.14;58.05;102189.75;5045935;28;20083;-76
2022/08/29 07:56:10;;;;;;;7.22;3.55;;;;;;;18.12;56.36;102196.00;5044443;28;20021;-76
2022/08/29 07:58:36;;;;;;;7.03;4.25;;;;;;;18.07;57.94;102195.28;5039230;28;20036;-76
2022/08/29 08:01:02;;;;;;;7.95;3.65;;;;;;;18.17;58.72;102201.97;5046119;28;20032;-76
2022/08/29 08:03:29;;;;;;;7.70;3.60;;;;;;;18.13;56.87;102198.59;5043804;28;20388;-76
2022/08/29 08:05:54;;;;;;;117.65;14.23;;;;;;;18.10;56.82;102187.28;5047297;28;20021;-76
2022/08/29 08:08:19;;;;;;;6.90;3.60;;;;;;;18.20;56.62;102193.97;5049891;28;20067;-76
2022/08/29 08:10:45;;;;;;;6.05;3.28;;;;;;;18.16;56.70;102197.63;5053146;28;20021;-76
2022/08/29 08:13:11;;;;;;;7.20;3.00;;;;;;;18.14;56.54;102200.31;5042526;28;20029;-75
2022/08/29 08:15:37;;;;;;;8.52;2.95;;;;;;;18.22;54.58;102192.16;5033376;28;20028;-76
2022/08/29 08:18:02;;;;;;;6.07;3.17;;;;;;;18.39;55.62;102188.91;5046478;28;20031;-76
2022/08/29 08:20:29;;;;;;;8.85;3.20;;;;;;;18.69;57.25;102185.19;5034740;28;20033;-76
2022/08/29 08:22:54;;;;;;;8.52;3.15;;;;;;;19.09;55.92;102189.00;5052736;28;20039;-77
2022/08/29 08:25:19;;;;;;;7.07;3.15;;;;;;;19.24;53.34;102184.94;5052145;28;20064;-77
2022/08/29 08:27:44;;;;;;;11.13;3.60;;;;;;;19.41;53.26;102198.38;5052380;28;20029;-77
2022/08/29 08:30:11;;;;;;;12.10;3.90;;;;;;;19.32;51.88;102188.13;5045379;28;20452;-77
2022/08/29 08:32:36;;;;;;;6.20;3.25;;;;;;;19.15;53.90;102195.88;5035725;28;20083;-77
2022/08/29 08:35:02;;;;;;;10.63;3.60;;;;;;;18.99;51.63;102195.56;5036476;28;20490;-77
2022/08/29 08:37:27;;;;;;;7.75;3.63;;;;;;;18.84;54.04;102181.16;5034749;28;20048;-77
2022/08/29 08:39:57;;;;;;;8.35;3.40;;;;;;;18.74;53.55;102194.75;5032779;28;20104;-77
2022/08/29 08:42:41;;;;;;;8.95;2.97;;;;;;;18.83;55.13;102189.13;5036386;28;20462;-77
2022/08/29 08:45:17;;;;;;;;;;;;;;;19.00;54.95;102188.50;5024144;28;20022;-77
2022/08/29 08:47:48;;;;;;;7.80;3.15;;;;;;;19.15;53.79;102172.94;5017059;28;19924;-77
2022/08/29 08:50:17;;;;;;;8.90;3.28;;;;;;;19.40;52.89;102175.50;5012091;28;20053;-77
2022/08/29 08:52:51;;;;;;;10.23;3.58;;;;;;;19.55;52.93;102183.72;5013422;28;20017;-77
2022/08/29 08:55:23;;;;;;;4.88;2.88;;;;;;;19.67;52.07;102177.13;5011927;28;20088;-77
2022/08/29 08:57:59;;;;;;;6.43;3.22;;;;;;;19.71;51.94;102179.56;5014324;28;20057;-77
2022/08/29 09:00:28;;;;;;;4.80;3.28;;;;;;;19.78;49.94;102180.19;5018110;28;20747;-77
2022/08/29 09:03:05;;;;;;;6.10;3.30;;;;;;;19.92;51.87;102191.09;5011884;28;20101;-77
2022/08/29 09:05:42;;;;;;;6.10;3.30;;;;;;;19.97;51.99;102186.44;5010857;28;20433;-76
2022/08/29 09:08:29;;;;;;;8.65;3.53;;;;;;;20.10;52.22;102187.66;5017149;28;20026;-76
2022/08/29 09:11:01;;;;;;;6.80;3.30;;;;;;;20.15;50.77;102178.69;5029671;28;20021;-76
2022/08/29 09:14:13;;;;;;;8.35;3.95;;;;;;;20.11;51.05;102193.84;5031810;28;20108;-76
2022/08/29 09:16:48;;;;;;;8.75;3.80;;;;;;;20.10;51.40;102198.25;5025596;28;20496;-76
2022/08/29 09:19:14;;;;;;;10.80;4.60;;;;;;;20.08;51.69;102204.56;5029667;28;20036;-78
2022/08/29 09:21:48;;;;;;;10.40;5.10;;;;;;;20.04;50.35;102200.28;5031170;28;20025;-75
2022/08/29 09:24:23;;;;;;;7.13;4.55;;;;;;;19.98;50.95;102204.06;5030885;28;20375;-77
2022/08/29 09:26:49;;;;;;;8.05;4.53;;;;;;;20.00;51.08;102204.84;5030532;28;20026;-76
2022/08/29 09:29:19;;;;;;;17.60;4.68;;;;;;;20.08;51.67;102207.19;5030996;28;20505;-76
2022/08/29 09:32:01;;;;;;;9.70;3.95;;;;;;;20.00;50.86;102204.00;5028954;28;20025;-76
2022/08/29 09:34:40;;;;;;;8.45;4.00;;;;;;;19.82;51.44;102214.41;5028743;28;20037;-76
2022/08/29 09:37:28;;;;;;;9.85;3.67;;;;;;;19.66;51.93;102213.31;5028376;28;20025;-75
2022/08/29 09:39:55;;;;;;;11.20;3.90;;;;;;;19.52;51.57;102215.59;5036890;28;20025;-76
2022/08/29 09:42:22;;;;;;;6.53;3.88;;;;;;;19.32;52.31;102205.78;5032116;28;20128;-76
2022/08/29 09:44:58;;;;;;;11.70;3.65;;;;;;;19.20;52.71;102203.63;5029226;28;20021;-75
2022/08/29 09:47:28;;;;;;;9.85;3.58;;;;;;;19.16;51.24;102202.84;5039602;28;20068;-76
2022/08/29 09:50:25;;;;;;;7.70;3.40;;;;;;;19.28;53.41;102204.19;5028374;28;20457;-76
2022/08/29 09:52:57;;;;;;;9.23;3.78;;;;;;;19.52;53.32;102199.72;5032811;28;20025;-77
2022/08/29 09:55:35;;;;;;;19.15;3.70;;;;;;;19.81;51.69;102203.88;5032073;28;20029;-76
2022/08/29 09:58:09;;;;;;;8.93;4.00;;;;;;;19.87;50.83;102191.25;5027552;28;20052;-76
2022/08/29 10:00:38;;;;;;;;;;;;;;;19.79;51.32;102201.31;5038468;28;20044;-76
2022/08/29 10:03:07;;;;;;;7.03;3.47;;;;;;;19.33;52.23;102192.53;5041574;28;20395;-76
2022/08/29 10:05:40;;;;;;;8.50;4.07;;;;;;;19.03;52.54;102199.84;5037451;28;20029;-76
2022/08/29 10:08:23;;;;;;;8.50;4.00;;;;;;;18.85;53.86;102189.94;5029868;28;20032;-76
2022/08/29 10:10:53;;;;;;;8.95;3.80;;;;;;;18.84;52.96;102191.72;5032716;28;20033;-76
2022/08/29 10:13:23;;;;;;;7.07;4.47;;;;;;;19.05;53.74;102205.06;5034166;28;20500;-76
2022/08/29 10:15:54;;;;;;;7.57;4.22;;;;;;;19.29;53.27;102198.88;5043904;28;20028;-76
2022/08/29 10:18:38;;;;;;;10.00;4.53;;;;;;;19.71;51.82;102208.69;5054482;28;20028;-76
2022/08/29 10:21:09;;;;;;;8.30;4.03;;;;;;;19.97;51.32;102207.63;5051418;28;20036;-76
2022/08/29 10:23:50;;;;;;;7.53;3.67;;;;;;;19.84;51.41;102206.41;5036725;28;20033;-77
2022/08/29 10:26:49;;;;;;;8.30;3.65;;;;;;;19.52;51.78;102205.00;5050857;28;20029;-76
2022/08/29 10:29:30;;;;;;;10.32;4.05;;;;;;;19.33;52.55;102197.81;5033422;28;20026;-76
2022/08/29 10:32:20;;;;;;;10.88;4.22;;;;;;;19.64;54.01;102188.69;5043600;28;20033;-76
2022/08/29 10:35:16;;;;;;;8.38;4.03;;;;;;;20.02;51.64;102191.56;5028480;28;20493;-76
2022/08/29 10:37:53;;;;;;;8.48;3.80;;;;;;;20.19;51.28;102174.97;5042791;28;20048;-76
2022/08/29 10:40:44;;;;;;;9.38;3.63;;;;;;;20.25;50.64;102186.16;5054046;28;20057;-76
2022/08/29 10:43:40;;;;;;;8.13;3.72;;;;;;;20.20;52.20;102180.19;5054388;28;20071;-76
2022/08/29 10:46:36;;;;;;;8.68;4.40;;;;;;;20.57;51.72;102176.84;5023867;28;20557;-77
2022/08/29 10:49:23;;;;;;;6.70;3.78;;;;;;;20.86;50.65;102181.75;5050334;28;20416;-76
2022/08/29 10:51:55;;;;;;;8.32;4.55;;;;;;;20.85;49.26;102175.59;5045104;28;20030;-76
2022/08/29 10:54:28;;;;;;;10.65;3.85;;;;;;;21.22;49.79;102179.19;5053156;28;20033;-76
2022/08/29 10:56:54;;;;;;;8.07;4.32;;;;;;;21.65;49.21;102167.44;5046823;28;20112;-77
2022/08/29 10:59:29;;;;;;;7.90;4.43;;;;;;;21.71;47.94;102155.63;5053941;28;20124;-76
2022/08/29 11:02:04;;;;;;;8.10;3.80;;;;;;;21.78;47.64;102158.84;5054012;28;20025;-76
2022/08/29 11:04:55;;;;;;;8.40;3.78;;;;;;;21.79;48.24;102149.97;5050032;28;20025;-76
2022/08/29 11:07:35;;;;;;;7.40;3.85;;;;;;;22.00;46.97;102154.16;5023586;28;20049;-76
2022/08/29 11:10:12;;;;;;;7.60;3.45;;;;;;;22.16;46.89;102146.31;5042797;28;20043;-76
2022/08/29 11:13:04;;;;;;;6.70;3.75;;;;;;;22.03;46.51;102155.81;5053876;28;20496;-76
2022/08/29 11:15:45;;;;;;;8.85;3.78;;;;;;;22.22;46.88;102145.16;5053769;28;20060;-76
2022/08/29 11:18:24;;;;;;;9.77;3.55;;;;;;;22.63;46.68;102151.81;5048100;28;20068;-76
2022/08/29 11:20:56;;;;;;;7.85;3.38;;;;;;;22.65;43.60;102143.72;5053435;28;20064;-76
2022/08/29 11:23:34;;;;;;;6.30;3.28;;;;;;;22.90;45.25;102141.47;5040814;28;20097;-76
2022/08/29 11:26:07;;;;;;;7.68;3.85;;;;;;;23.10;44.98;102135.06;5022704;28;20072;-76